sensor_id;sensor_type;location;lat;lon;timestamp;P1;durP1;ratioP1;P2;durP2;ratioP2
3101;SDS011;1561;42.666;23.392;2023-08-30T00:02:22;12.35;;;11.15;;
3101;SDS011;1561;42.666;23.392;2023-08-30T00:04:49;12.77;;;11.35;;
3101;SDS011;1561;42.666;23.392;2023-08-30T00:07:17;11.77;;;10.68;;
3101;SDS011;1561;42.666;23.392;2023-08-30T00:09:44;14.45;;;10.05;;
3101;SDS011;1561;42.666;23.392;2023-08-30T00:12:13;11.07;;;9.70;;
3101;SDS011;1561;42.666;23.392;2023-08-30T00:14:40;11.88;;;10.68;;
3101;SDS011;1561;42.666;23.392;2023-08-30T00:17:07;11.57;;;10.57;;
3101;SDS011;1561;42.666;23.392;2023-08-30T00:19:39;12.75;;;11.45;;
3101;SDS011;1561;42.666;23.392;2023-08-30T00:22:06;14.43;;;10.88;;
3101;SDS011;1561;42.666;23.392;2023-08-30T00:24:36;14.15;;;11.23;;
3101;SDS011;1561;42.666;23.392;2023-08-30T00:27:03;15.40;;;11.73;;
3101;SDS011;1561;42.666;23.392;2023-08-30T00:29:31;15.10;;;11.65;;
3101;SDS011;1561;42.666;23.392;2023-08-30T00:31:58;12.02;;;10.93;;
3101;SDS011;1561;42.666;23.392;2023-08-30T00:34:26;12.45;;;11.40;;
3101;SDS011;1561;42.666;23.392;2023-08-30T00:36:54;11.48;;;10.25;;
3101;SDS011;1561;42.666;23.392;2023-08-30T00:39:21;11.52;;;10.10;;
3101;SDS011;1561;42.666;23.392;2023-08-30T00:41:50;10.77;;;8.98;;
3101;SDS011;1561;42.666;23.392;2023-08-30T00:44:17;10.00;;;9.10;;
3101;SDS011;1561;42.666;23.392;2023-08-30T00:46:44;11.27;;;8.93;;
3101;SDS011;1561;42.666;23.392;2023-08-30T00:49:13;10.93;;;8.77;;
3101;SDS011;1561;42.666;23.392;2023-08-30T00:51:40;8.93;;;8.02;;
3101;SDS011;1561;42.666;23.392;2023-08-30T00:54:08;9.90;;;9.00;;
3101;SDS011;1561;42.666;23.392;2023-08-30T00:56:35;11.20;;;8.18;;
3101;SDS011;1561;42.666;23.392;2023-08-30T00:59:06;12.75;;;8.00;;
3101;SDS011;1561;42.666;23.392;2023-08-30T01:01:33;9.10;;;8.20;;
3101;SDS011;1561;42.666;23.392;2023-08-30T01:03:59;10.52;;;8.68;;
3101;SDS011;1561;42.666;23.392;2023-08-30T01:06:27;10.25;;;9.32;;
3101;SDS011;1561;42.666;23.392;2023-08-30T01:08:54;10.13;;;9.23;;
3101;SDS011;1561;42.666;23.392;2023-08-30T01:11:22;10.48;;;9.48;;
3101;SDS011;1561;42.666;23.392;2023-08-30T01:13:55;11.75;;;9.68;;
3101;SDS011;1561;42.666;23.392;2023-08-30T01:16:28;10.68;;;9.68;;
3101;SDS011;1561;42.666;23.392;2023-08-30T01:18:57;11.95;;;9.30;;
3101;SDS011;1561;42.666;23.392;2023-08-30T01:21:32;11.18;;;9.10;;
3101;SDS011;1561;42.666;23.392;2023-08-30T01:24:06;11.77;;;8.80;;
3101;SDS011;1561;42.666;23.392;2023-08-30T01:26:41;11.18;;;9.07;;
3101;SDS011;1561;42.666;23.392;2023-08-30T01:29:17;11.20;;;8.85;;
3101;SDS011;1561;42.666;23.392;2023-08-30T01:31:46;11.25;;;10.05;;
3101;SDS011;1561;42.666;23.392;2023-08-30T01:34:14;8.80;;;7.90;;
3101;SDS011;1561;42.666;23.392;2023-08-30T01:36:43;8.82;;;8.00;;
3101;SDS011;1561;42.666;23.392;2023-08-30T01:39:10;11.70;;;8.00;;
3101;SDS011;1561;42.666;23.392;2023-08-30T01:41:39;9.60;;;8.55;;
3101;SDS011;1561;42.666;23.392;2023-08-30T01:44:06;10.90;;;9.02;;
3101;SDS011;1561;42.666;23.392;2023-08-30T01:46:37;12.57;;;7.85;;
3101;SDS011;1561;42.666;23.392;2023-08-30T01:49:04;11.05;;;8.60;;
3101;SDS011;1561;42.666;23.392;2023-08-30T01:51:33;15.10;;;9.45;;
3101;SDS011;1561;42.666;23.392;2023-08-30T01:54:01;15.00;;;9.63;;
3101;SDS011;1561;42.666;23.392;2023-08-30T01:56:30;13.15;;;9.23;;
3101;SDS011;1561;42.666;23.392;2023-08-30T01:58:57;14.23;;;9.30;;
3101;SDS011;1561;42.666;23.392;2023-08-30T02:01:24;12.25;;;9.80;;
3101;SDS011;1561;42.666;23.392;2023-08-30T02:03:52;11.80;;;9.40;;
3101;SDS011;1561;42.666;23.392;2023-08-30T02:06:21;14.73;;;10.20;;
3101;SDS011;1561;42.666;23.392;2023-08-30T02:08:52;16.42;;;11.48;;
3101;SDS011;1561;42.666;23.392;2023-08-30T02:11:22;14.52;;;10.70;;
3101;SDS011;1561;42.666;23.392;2023-08-30T02:13:51;15.00;;;10.88;;
3101;SDS011;1561;42.666;23.392;2023-08-30T02:16:20;17.02;;;11.35;;
3101;SDS011;1561;42.666;23.392;2023-08-30T02:18:49;14.02;;;11.82;;
3101;SDS011;1561;42.666;23.392;2023-08-30T02:21:18;15.88;;;11.63;;
3101;SDS011;1561;42.666;23.392;2023-08-30T02:23:49;18.27;;;13.20;;
3101;SDS011;1561;42.666;23.392;2023-08-30T02:26:17;18.23;;;11.95;;
3101;SDS011;1561;42.666;23.392;2023-08-30T02:28:45;16.13;;;11.60;;
3101;SDS011;1561;42.666;23.392;2023-08-30T02:31:12;15.55;;;11.27;;
3101;SDS011;1561;42.666;23.392;2023-08-30T02:33:39;12.77;;;11.02;;
3101;SDS011;1561;42.666;23.392;2023-08-30T02:36:06;12.20;;;10.45;;
3101;SDS011;1561;42.666;23.392;2023-08-30T02:38:35;12.07;;;10.57;;
3101;SDS011;1561;42.666;23.392;2023-08-30T02:41:03;16.73;;;11.30;;
3101;SDS011;1561;42.666;23.392;2023-08-30T02:43:30;12.55;;;10.77;;
3101;SDS011;1561;42.666;23.392;2023-08-30T02:45:58;15.48;;;11.73;;
3101;SDS011;1561;42.666;23.392;2023-08-30T02:48:26;14.18;;;11.90;;
3101;SDS011;1561;42.666;23.392;2023-08-30T02:50:53;13.23;;;11.95;;
3101;SDS011;1561;42.666;23.392;2023-08-30T02:53:21;13.93;;;10.68;;
3101;SDS011;1561;42.666;23.392;2023-08-30T02:55:49;14.82;;;10.52;;
3101;SDS011;1561;42.666;23.392;2023-08-30T02:58:22;13.20;;;11.38;;
3101;SDS011;1561;42.666;23.392;2023-08-30T03:00:49;14.93;;;10.93;;
3101;SDS011;1561;42.666;23.392;2023-08-30T03:03:16;14.65;;;11.68;;
3101;SDS011;1561;42.666;23.392;2023-08-30T03:05:43;12.50;;;11.20;;
3101;SDS011;1561;42.666;23.392;2023-08-30T03:08:09;12.05;;;10.85;;
3101;SDS011;1561;42.666;23.392;2023-08-30T03:10:37;11.98;;;10.52;;
3101;SDS011;1561;42.666;23.392;2023-08-30T03:13:07;13.02;;;11.23;;
3101;SDS011;1561;42.666;23.392;2023-08-30T03:15:33;13.07;;;11.68;;
3101;SDS011;1561;42.666;23.392;2023-08-30T03:18:02;14.00;;;12.00;;
3101;SDS011;1561;42.666;23.392;2023-08-30T03:20:29;13.38;;;11.20;;
3101;SDS011;1561;42.666;23.392;2023-08-30T03:22:56;11.57;;;10.27;;
3101;SDS011;1561;42.666;23.392;2023-08-30T03:25:24;11.52;;;10.35;;
3101;SDS011;1561;42.666;23.392;2023-08-30T03:30:40;12.32;;;10.63;;
3101;SDS011;1561;42.666;23.392;2023-08-30T03:33:09;12.60;;;11.18;;
3101;SDS011;1561;42.666;23.392;2023-08-30T03:35:37;12.00;;;10.90;;
3101;SDS011;1561;42.666;23.392;2023-08-30T03:38:04;14.15;;;10.95;;
3101;SDS011;1561;42.666;23.392;2023-08-30T03:40:33;15.98;;;11.23;;
3101;SDS011;1561;42.666;23.392;2023-08-30T03:43:00;17.05;;;11.82;;
3101;SDS011;1561;42.666;23.392;2023-08-30T03:45:30;16.00;;;12.02;;
3101;SDS011;1561;42.666;23.392;2023-08-30T03:48:01;13.27;;;11.88;;
3101;SDS011;1561;42.666;23.392;2023-08-30T03:50:28;17.95;;;13.65;;
3101;SDS011;1561;42.666;23.392;2023-08-30T03:52:54;15.95;;;13.50;;
3101;SDS011;1561;42.666;23.392;2023-08-30T03:55:22;13.93;;;12.30;;
3101;SDS011;1561;42.666;23.392;2023-08-30T03:57:49;16.02;;;13.75;;
3101;SDS011;1561;42.666;23.392;2023-08-30T04:00:16;19.27;;;13.25;;
3101;SDS011;1561;42.666;23.392;2023-08-30T04:02:44;15.57;;;13.25;;
3101;SDS011;1561;42.666;23.392;2023-08-30T04:05:13;13.38;;;12.18;;
3101;SDS011;1561;42.666;23.392;2023-08-30T04:07:41;14.20;;;11.43;;
3101;SDS011;1561;42.666;23.392;2023-08-30T04:10:09;14.70;;;12.40;;
3101;SDS011;1561;42.666;23.392;2023-08-30T04:12:36;13.30;;;11.75;;
3101;SDS011;1561;42.666;23.392;2023-08-30T04:15:03;15.25;;;12.07;;
3101;SDS011;1561;42.666;23.392;2023-08-30T04:17:30;12.25;;;9.95;;
3101;SDS011;1561;42.666;23.392;2023-08-30T04:19:58;11.68;;;10.40;;
3101;SDS011;1561;42.666;23.392;2023-08-30T04:22:25;13.30;;;11.38;;
3101;SDS011;1561;42.666;23.392;2023-08-30T04:24:52;13.52;;;11.10;;
3101;SDS011;1561;42.666;23.392;2023-08-30T04:27:21;12.40;;;10.13;;
3101;SDS011;1561;42.666;23.392;2023-08-30T04:29:50;13.35;;;10.23;;
3101;SDS011;1561;42.666;23.392;2023-08-30T04:32:18;13.52;;;9.85;;
3101;SDS011;1561;42.666;23.392;2023-08-30T04:34:47;16.23;;;12.73;;
3101;SDS011;1561;42.666;23.392;2023-08-30T04:37:15;12.02;;;9.98;;
3101;SDS011;1561;42.666;23.392;2023-08-30T04:39:46;9.18;;;8.27;;
3101;SDS011;1561;42.666;23.392;2023-08-30T04:42:14;9.18;;;8.10;;
3101;SDS011;1561;42.666;23.392;2023-08-30T04:44:42;9.48;;;8.50;;
3101;SDS011;1561;42.666;23.392;2023-08-30T04:47:11;10.90;;;8.95;;
3101;SDS011;1561;42.666;23.392;2023-08-30T04:49:37;10.02;;;8.85;;
3101;SDS011;1561;42.666;23.392;2023-08-30T04:52:04;11.48;;;8.55;;
3101;SDS011;1561;42.666;23.392;2023-08-30T04:54:34;10.73;;;8.93;;
3101;SDS011;1561;42.666;23.392;2023-08-30T04:57:02;11.52;;;8.38;;
3101;SDS011;1561;42.666;23.392;2023-08-30T04:59:30;10.90;;;8.30;;
3101;SDS011;1561;42.666;23.392;2023-08-30T05:01:57;9.65;;;8.65;;
3101;SDS011;1561;42.666;23.392;2023-08-30T05:04:24;11.93;;;10.73;;
3101;SDS011;1561;42.666;23.392;2023-08-30T05:06:51;13.68;;;9.77;;
3101;SDS011;1561;42.666;23.392;2023-08-30T05:09:18;12.63;;;11.32;;
3101;SDS011;1561;42.666;23.392;2023-08-30T05:11:52;12.88;;;11.65;;
3101;SDS011;1561;42.666;23.392;2023-08-30T05:14:20;12.15;;;10.90;;
3101;SDS011;1561;42.666;23.392;2023-08-30T05:16:48;15.40;;;13.77;;
3101;SDS011;1561;42.666;23.392;2023-08-30T05:19:16;15.90;;;13.95;;
3101;SDS011;1561;42.666;23.392;2023-08-30T05:21:43;17.08;;;15.27;;
3101;SDS011;1561;42.666;23.392;2023-08-30T05:24:10;18.10;;;13.85;;
3101;SDS011;1561;42.666;23.392;2023-08-30T05:26:37;15.02;;;13.43;;
3101;SDS011;1561;42.666;23.392;2023-08-30T05:29:06;13.15;;;11.77;;
3101;SDS011;1561;42.666;23.392;2023-08-30T05:31:33;14.07;;;11.57;;
3101;SDS011;1561;42.666;23.392;2023-08-30T05:34:01;14.73;;;13.10;;
3101;SDS011;1561;42.666;23.392;2023-08-30T05:36:28;17.00;;;12.15;;
3101;SDS011;1561;42.666;23.392;2023-08-30T05:38:54;17.92;;;13.73;;
3101;SDS011;1561;42.666;23.392;2023-08-30T05:41:22;15.43;;;12.73;;
3101;SDS011;1561;42.666;23.392;2023-08-30T05:43:50;14.20;;;12.70;;
3101;SDS011;1561;42.666;23.392;2023-08-30T05:46:19;13.00;;;11.68;;
3101;SDS011;1561;42.666;23.392;2023-08-30T05:48:46;14.63;;;11.63;;
3101;SDS011;1561;42.666;23.392;2023-08-30T05:51:12;15.13;;;12.52;;
3101;SDS011;1561;42.666;23.392;2023-08-30T05:53:39;13.10;;;11.95;;
3101;SDS011;1561;42.666;23.392;2023-08-30T05:56:06;13.80;;;12.38;;
3101;SDS011;1561;42.666;23.392;2023-08-30T05:58:34;17.70;;;11.73;;
3101;SDS011;1561;42.666;23.392;2023-08-30T06:01:03;12.50;;;11.40;;
3101;SDS011;1561;42.666;23.392;2023-08-30T06:03:32;13.88;;;12.18;;
3101;SDS011;1561;42.666;23.392;2023-08-30T06:05:59;12.98;;;10.60;;
3101;SDS011;1561;42.666;23.392;2023-08-30T06:08:29;13.50;;;12.23;;
3101;SDS011;1561;42.666;23.392;2023-08-30T06:10:55;13.27;;;11.93;;
3101;SDS011;1561;42.666;23.392;2023-08-30T06:13:22;13.23;;;11.55;;
3101;SDS011;1561;42.666;23.392;2023-08-30T06:15:55;13.75;;;12.43;;
3101;SDS011;1561;42.666;23.392;2023-08-30T06:18:22;15.32;;;12.23;;
3101;SDS011;1561;42.666;23.392;2023-08-30T06:20:51;15.82;;;12.38;;
3101;SDS011;1561;42.666;23.392;2023-08-30T06:23:18;15.23;;;13.63;;
3101;SDS011;1561;42.666;23.392;2023-08-30T06:25:52;15.70;;;13.82;;
3101;SDS011;1561;42.666;23.392;2023-08-30T06:28:21;58.88;;;37.88;;
3101;SDS011;1561;42.666;23.392;2023-08-30T06:30:48;18.20;;;15.02;;
3101;SDS011;1561;42.666;23.392;2023-08-30T06:33:15;19.70;;;16.27;;
3101;SDS011;1561;42.666;23.392;2023-08-30T06:35:42;17.27;;;15.38;;
3101;SDS011;1561;42.666;23.392;2023-08-30T06:38:12;23.10;;;19.80;;
3101;SDS011;1561;42.666;23.392;2023-08-30T06:40:42;37.25;;;29.73;;
3101;SDS011;1561;42.666;23.392;2023-08-30T06:43:10;37.05;;;30.30;;
3101;SDS011;1561;42.666;23.392;2023-08-30T06:45:40;19.10;;;16.40;;
3101;SDS011;1561;42.666;23.392;2023-08-30T06:48:07;21.90;;;15.55;;
3101;SDS011;1561;42.666;23.392;2023-08-30T06:50:36;19.63;;;15.02;;
3101;SDS011;1561;42.666;23.392;2023-08-30T06:53:03;14.95;;;13.35;;
3101;SDS011;1561;42.666;23.392;2023-08-30T06:55:31;13.02;;;11.73;;
3101;SDS011;1561;42.666;23.392;2023-08-30T06:57:58;16.38;;;14.68;;
3101;SDS011;1561;42.666;23.392;2023-08-30T07:00:25;16.77;;;15.18;;
3101;SDS011;1561;42.666;23.392;2023-08-30T07:02:55;18.75;;;16.70;;
3101;SDS011;1561;42.666;23.392;2023-08-30T07:05:23;16.20;;;14.65;;
3101;SDS011;1561;42.666;23.392;2023-08-30T07:07:49;16.10;;;14.25;;
3101;SDS011;1561;42.666;23.392;2023-08-30T07:10:18;14.82;;;13.38;;
3101;SDS011;1561;42.666;23.392;2023-08-30T07:12:46;14.50;;;13.20;;
3101;SDS011;1561;42.666;23.392;2023-08-30T07:15:14;18.77;;;14.57;;
3101;SDS011;1561;42.666;23.392;2023-08-30T07:17:42;14.50;;;13.00;;
3101;SDS011;1561;42.666;23.392;2023-08-30T07:20:10;14.02;;;12.73;;
3101;SDS011;1561;42.666;23.392;2023-08-30T07:22:37;21.60;;;13.43;;
3101;SDS011;1561;42.666;23.392;2023-08-30T07:25:05;14.10;;;12.70;;
3101;SDS011;1561;42.666;23.392;2023-08-30T07:27:33;12.95;;;11.55;;
3101;SDS011;1561;42.666;23.392;2023-08-30T07:30:01;14.25;;;12.07;;
3101;SDS011;1561;42.666;23.392;2023-08-30T07:32:29;15.20;;;10.75;;
3101;SDS011;1561;42.666;23.392;2023-08-30T07:34:56;12.43;;;11.10;;
3101;SDS011;1561;42.666;23.392;2023-08-30T07:37:24;12.05;;;10.77;;
3101;SDS011;1561;42.666;23.392;2023-08-30T07:39:53;12.85;;;11.55;;
3101;SDS011;1561;42.666;23.392;2023-08-30T07:42:24;13.95;;;12.57;;
3101;SDS011;1561;42.666;23.392;2023-08-30T07:44:51;13.10;;;11.75;;
3101;SDS011;1561;42.666;23.392;2023-08-30T07:47:20;12.32;;;10.60;;
3101;SDS011;1561;42.666;23.392;2023-08-30T07:49:47;13.02;;;11.88;;
3101;SDS011;1561;42.666;23.392;2023-08-30T07:52:14;11.60;;;10.40;;
3101;SDS011;1561;42.666;23.392;2023-08-30T07:54:41;10.27;;;9.38;;
3101;SDS011;1561;42.666;23.392;2023-08-30T07:57:09;10.05;;;9.05;;
3101;SDS011;1561;42.666;23.392;2023-08-30T07:59:38;10.23;;;9.32;;
3101;SDS011;1561;42.666;23.392;2023-08-30T08:02:06;8.70;;;7.90;;
3101;SDS011;1561;42.666;23.392;2023-08-30T08:04:35;9.95;;;8.40;;
3101;SDS011;1561;42.666;23.392;2023-08-30T08:07:02;11.38;;;8.20;;
3101;SDS011;1561;42.666;23.392;2023-08-30T08:09:31;12.50;;;8.30;;
3101;SDS011;1561;42.666;23.392;2023-08-30T08:11:59;11.18;;;8.82;;
3101;SDS011;1561;42.666;23.392;2023-08-30T08:14:27;9.55;;;8.07;;
3101;SDS011;1561;42.666;23.392;2023-08-30T08:16:56;9.75;;;8.45;;
3101;SDS011;1561;42.666;23.392;2023-08-30T08:19:25;11.57;;;7.68;;
3101;SDS011;1561;42.666;23.392;2023-08-30T08:21:53;10.73;;;7.80;;
3101;SDS011;1561;42.666;23.392;2023-08-30T08:24:21;8.10;;;7.05;;
3101;SDS011;1561;42.666;23.392;2023-08-30T08:26:55;12.73;;;7.30;;
3101;SDS011;1561;42.666;23.392;2023-08-30T08:29:22;7.95;;;7.15;;
3101;SDS011;1561;42.666;23.392;2023-08-30T08:31:51;9.50;;;7.10;;
3101;SDS011;1561;42.666;23.392;2023-08-30T08:34:19;7.93;;;7.07;;
3101;SDS011;1561;42.666;23.392;2023-08-30T08:36:46;6.53;;;5.72;;
3101;SDS011;1561;42.666;23.392;2023-08-30T08:39:17;10.15;;;7.43;;
3101;SDS011;1561;42.666;23.392;2023-08-30T08:41:44;9.25;;;6.18;;
3101;SDS011;1561;42.666;23.392;2023-08-30T08:44:12;9.30;;;6.00;;
3101;SDS011;1561;42.666;23.392;2023-08-30T08:46:46;5.60;;;5.10;;
3101;SDS011;1561;42.666;23.392;2023-08-30T08:49:15;6.68;;;6.00;;
3101;SDS011;1561;42.666;23.392;2023-08-30T08:51:44;6.85;;;6.03;;
3101;SDS011;1561;42.666;23.392;2023-08-30T08:54:11;5.72;;;5.20;;
3101;SDS011;1561;42.666;23.392;2023-08-30T08:56:40;7.18;;;4.78;;
3101;SDS011;1561;42.666;23.392;2023-08-30T08:59:09;8.15;;;5.75;;
3101;SDS011;1561;42.666;23.392;2023-08-30T09:01:37;8.02;;;5.35;;
3101;SDS011;1561;42.666;23.392;2023-08-30T09:04:06;5.45;;;4.95;;
3101;SDS011;1561;42.666;23.392;2023-08-30T09:06:34;6.25;;;5.18;;
3101;SDS011;1561;42.666;23.392;2023-08-30T09:09:02;7.05;;;5.72;;
3101;SDS011;1561;42.666;23.392;2023-08-30T09:11:30;5.82;;;5.15;;
3101;SDS011;1561;42.666;23.392;2023-08-30T09:13:59;6.32;;;5.72;;
3101;SDS011;1561;42.666;23.392;2023-08-30T09:16:27;6.32;;;5.57;;
3101;SDS011;1561;42.666;23.392;2023-08-30T09:18:57;6.80;;;5.40;;
3101;SDS011;1561;42.666;23.392;2023-08-30T09:21:28;5.55;;;5.05;;
3101;SDS011;1561;42.666;23.392;2023-08-30T09:23:57;6.10;;;5.47;;
3101;SDS011;1561;42.666;23.392;2023-08-30T09:26:26;6.10;;;5.50;;
3101;SDS011;1561;42.666;23.392;2023-08-30T09:28:54;5.63;;;5.13;;
3101;SDS011;1561;42.666;23.392;2023-08-30T09:31:25;6.85;;;5.38;;
3101;SDS011;1561;42.666;23.392;2023-08-30T09:33:57;6.68;;;6.03;;
3101;SDS011;1561;42.666;23.392;2023-08-30T09:36:27;6.53;;;5.50;;
3101;SDS011;1561;42.666;23.392;2023-08-30T09:39:02;9.32;;;6.88;;
3101;SDS011;1561;42.666;23.392;2023-08-30T09:41:30;9.07;;;5.80;;
3101;SDS011;1561;42.666;23.392;2023-08-30T09:43:57;6.45;;;5.68;;
3101;SDS011;1561;42.666;23.392;2023-08-30T09:46:26;9.93;;;6.10;;
3101;SDS011;1561;42.666;23.392;2023-08-30T09:48:56;6.30;;;5.80;;
3101;SDS011;1561;42.666;23.392;2023-08-30T09:51:23;6.10;;;5.55;;
3101;SDS011;1561;42.666;23.392;2023-08-30T09:53:53;5.80;;;5.28;;
3101;SDS011;1561;42.666;23.392;2023-08-30T09:56:24;6.78;;;6.15;;
3101;SDS011;1561;42.666;23.392;2023-08-30T09:58:53;11.13;;;8.05;;
3101;SDS011;1561;42.666;23.392;2023-08-30T10:01:22;7.13;;;6.07;;
3101;SDS011;1561;42.666;23.392;2023-08-30T10:03:58;6.63;;;5.95;;
3101;SDS011;1561;42.666;23.392;2023-08-30T10:06:27;6.90;;;6.22;;
3101;SDS011;1561;42.666;23.392;2023-08-30T10:08:56;7.05;;;6.00;;
3101;SDS011;1561;42.666;23.392;2023-08-30T10:11:23;6.70;;;6.03;;
3101;SDS011;1561;42.666;23.392;2023-08-30T10:13:51;7.25;;;6.60;;
3101;SDS011;1561;42.666;23.392;2023-08-30T10:16:19;6.47;;;5.88;;
3101;SDS011;1561;42.666;23.392;2023-08-30T10:18:52;6.57;;;6.07;;
3101;SDS011;1561;42.666;23.392;2023-08-30T10:21:21;6.72;;;6.13;;
3101;SDS011;1561;42.666;23.392;2023-08-30T10:23:49;7.00;;;6.28;;
3101;SDS011;1561;42.666;23.392;2023-08-30T10:26:21;6.47;;;5.57;;
3101;SDS011;1561;42.666;23.392;2023-08-30T10:28:50;7.53;;;6.93;;
3101;SDS011;1561;42.666;23.392;2023-08-30T10:31:18;8.48;;;7.68;;
3101;SDS011;1561;42.666;23.392;2023-08-30T10:33:49;7.15;;;6.38;;
3101;SDS011;1561;42.666;23.392;2023-08-30T10:36:22;8.57;;;6.88;;
3101;SDS011;1561;42.666;23.392;2023-08-30T10:38:51;7.95;;;6.63;;
3101;SDS011;1561;42.666;23.392;2023-08-30T10:41:22;7.28;;;6.57;;
3101;SDS011;1561;42.666;23.392;2023-08-30T10:43:51;10.15;;;7.75;;
3101;SDS011;1561;42.666;23.392;2023-08-30T10:46:29;7.35;;;6.70;;
3101;SDS011;1561;42.666;23.392;2023-08-30T10:49:07;9.40;;;8.52;;
3101;SDS011;1561;42.666;23.392;2023-08-30T10:51:35;8.18;;;6.85;;
3101;SDS011;1561;42.666;23.392;2023-08-30T10:54:10;7.32;;;6.63;;
3101;SDS011;1561;42.666;23.392;2023-08-30T10:56:45;9.27;;;6.82;;
3101;SDS011;1561;42.666;23.392;2023-08-30T10:59:16;7.35;;;6.72;;
3101;SDS011;1561;42.666;23.392;2023-08-30T11:01:45;13.57;;;7.55;;
3101;SDS011;1561;42.666;23.392;2023-08-30T11:04:15;8.50;;;7.22;;
3101;SDS011;1561;42.666;23.392;2023-08-30T11:06:43;11.65;;;10.38;;
3101;SDS011;1561;42.666;23.392;2023-08-30T11:09:21;8.80;;;7.13;;
3101;SDS011;1561;42.666;23.392;2023-08-30T11:11:58;9.98;;;6.50;;
3101;SDS011;1561;42.666;23.392;2023-08-30T11:14:31;10.70;;;7.30;;
3101;SDS011;1561;42.666;23.392;2023-08-30T11:16:58;8.15;;;7.00;;
3101;SDS011;1561;42.666;23.392;2023-08-30T11:19:28;9.02;;;7.88;;
3101;SDS011;1561;42.666;23.392;2023-08-30T11:21:56;14.15;;;7.40;;
3101;SDS011;1561;42.666;23.392;2023-08-30T11:24:23;8.35;;;7.65;;
3101;SDS011;1561;42.666;23.392;2023-08-30T11:26:54;8.05;;;7.45;;
3101;SDS011;1561;42.666;23.392;2023-08-30T11:29:23;7.40;;;6.75;;
3101;SDS011;1561;42.666;23.392;2023-08-30T11:31:53;8.02;;;7.40;;
3101;SDS011;1561;42.666;23.392;2023-08-30T11:34:21;7.95;;;7.20;;
3101;SDS011;1561;42.666;23.392;2023-08-30T11:36:50;9.82;;;8.82;;
3101;SDS011;1561;42.666;23.392;2023-08-30T11:39:18;9.05;;;8.25;;
3101;SDS011;1561;42.666;23.392;2023-08-30T11:41:49;8.32;;;7.72;;
3101;SDS011;1561;42.666;23.392;2023-08-30T11:44:17;8.15;;;7.30;;
3101;SDS011;1561;42.666;23.392;2023-08-30T11:46:47;8.38;;;7.65;;
3101;SDS011;1561;42.666;23.392;2023-08-30T11:49:15;9.40;;;7.93;;
3101;SDS011;1561;42.666;23.392;2023-08-30T11:51:42;8.15;;;7.45;;
3101;SDS011;1561;42.666;23.392;2023-08-30T11:54:13;8.10;;;7.40;;
3101;SDS011;1561;42.666;23.392;2023-08-30T11:56:42;10.23;;;8.00;;
3101;SDS011;1561;42.666;23.392;2023-08-30T11:59:17;9.00;;;8.23;;
3101;SDS011;1561;42.666;23.392;2023-08-30T12:01:46;7.68;;;6.90;;
3101;SDS011;1561;42.666;23.392;2023-08-30T12:04:13;9.00;;;8.10;;
3101;SDS011;1561;42.666;23.392;2023-08-30T12:06:43;9.57;;;7.65;;
3101;SDS011;1561;42.666;23.392;2023-08-30T12:09:20;9.13;;;8.32;;
3101;SDS011;1561;42.666;23.392;2023-08-30T12:11:48;8.20;;;7.50;;
3101;SDS011;1561;42.666;23.392;2023-08-30T12:14:16;9.60;;;8.60;;
3101;SDS011;1561;42.666;23.392;2023-08-30T12:16:43;8.60;;;7.82;;
3101;SDS011;1561;42.666;23.392;2023-08-30T12:19:12;8.40;;;7.72;;
3101;SDS011;1561;42.666;23.392;2023-08-30T12:21:39;8.85;;;7.97;;
3101;SDS011;1561;42.666;23.392;2023-08-30T12:24:07;8.70;;;7.90;;
3101;SDS011;1561;42.666;23.392;2023-08-30T12:26:35;8.65;;;7.90;;
3101;SDS011;1561;42.666;23.392;2023-08-30T12:29:03;11.90;;;7.70;;
3101;SDS011;1561;42.666;23.392;2023-08-30T12:31:32;8.60;;;7.78;;
3101;SDS011;1561;42.666;23.392;2023-08-30T12:33:58;8.00;;;7.45;;
3101;SDS011;1561;42.666;23.392;2023-08-30T12:36:25;8.40;;;7.75;;
3101;SDS011;1561;42.666;23.392;2023-08-30T12:38:52;8.90;;;8.00;;
3101;SDS011;1561;42.666;23.392;2023-08-30T12:41:19;9.50;;;8.70;;
3101;SDS011;1561;42.666;23.392;2023-08-30T12:43:49;8.73;;;7.82;;
3101;SDS011;1561;42.666;23.392;2023-08-30T12:46:18;8.13;;;7.32;;
3101;SDS011;1561;42.666;23.392;2023-08-30T12:48:44;9.23;;;8.32;;
3101;SDS011;1561;42.666;23.392;2023-08-30T12:51:12;9.27;;;8.40;;
3101;SDS011;1561;42.666;23.392;2023-08-30T12:53:40;9.57;;;8.68;;
3101;SDS011;1561;42.666;23.392;2023-08-30T12:56:09;9.43;;;8.52;;
3101;SDS011;1561;42.666;23.392;2023-08-30T12:58:36;7.72;;;7.03;;
3101;SDS011;1561;42.666;23.392;2023-08-30T13:01:05;10.35;;;9.18;;
3101;SDS011;1561;42.666;23.392;2023-08-30T13:03:32;10.07;;;8.60;;
3101;SDS011;1561;42.666;23.392;2023-08-30T13:05:59;9.38;;;8.43;;
3101;SDS011;1561;42.666;23.392;2023-08-30T13:08:27;9.48;;;8.65;;
3101;SDS011;1561;42.666;23.392;2023-08-30T13:10:55;8.25;;;7.38;;
3101;SDS011;1561;42.666;23.392;2023-08-30T13:13:22;8.35;;;7.65;;
3101;SDS011;1561;42.666;23.392;2023-08-30T13:15:50;8.30;;;7.60;;
3101;SDS011;1561;42.666;23.392;2023-08-30T13:18:18;8.70;;;7.88;;
3101;SDS011;1561;42.666;23.392;2023-08-30T13:20:46;9.65;;;8.85;;
3101;SDS011;1561;42.666;23.392;2023-08-30T13:23:16;9.25;;;8.13;;
3101;SDS011;1561;42.666;23.392;2023-08-30T13:25:43;8.35;;;7.32;;
3101;SDS011;1561;42.666;23.392;2023-08-30T13:28:10;8.68;;;7.80;;
3101;SDS011;1561;42.666;23.392;2023-08-30T13:30:43;12.48;;;10.60;;
3101;SDS011;1561;42.666;23.392;2023-08-30T13:33:11;9.50;;;8.52;;
3101;SDS011;1561;42.666;23.392;2023-08-30T13:35:40;9.30;;;8.40;;
3101;SDS011;1561;42.666;23.392;2023-08-30T13:38:06;9.90;;;9.05;;
3101;SDS011;1561;42.666;23.392;2023-08-30T13:40:33;9.35;;;8.48;;
3101;SDS011;1561;42.666;23.392;2023-08-30T13:43:00;8.77;;;7.95;;
3101;SDS011;1561;42.666;23.392;2023-08-30T13:45:28;9.43;;;8.52;;
3101;SDS011;1561;42.666;23.392;2023-08-30T13:47:55;10.27;;;9.38;;
3101;SDS011;1561;42.666;23.392;2023-08-30T13:50:22;9.05;;;8.07;;
3101;SDS011;1561;42.666;23.392;2023-08-30T13:52:53;8.68;;;7.78;;
3101;SDS011;1561;42.666;23.392;2023-08-30T13:55:20;9.25;;;8.45;;
3101;SDS011;1561;42.666;23.392;2023-08-30T13:57:50;9.25;;;8.02;;
3101;SDS011;1561;42.666;23.392;2023-08-30T14:00:18;9.23;;;7.57;;
3101;SDS011;1561;42.666;23.392;2023-08-30T14:02:47;9.52;;;8.63;;
3101;SDS011;1561;42.666;23.392;2023-08-30T14:05:16;9.15;;;8.45;;
3101;SDS011;1561;42.666;23.392;2023-08-30T14:07:45;9.55;;;8.60;;
3101;SDS011;1561;42.666;23.392;2023-08-30T14:10:16;9.57;;;8.75;;
3101;SDS011;1561;42.666;23.392;2023-08-30T14:12:44;12.43;;;9.60;;
3101;SDS011;1561;42.666;23.392;2023-08-30T14:15:11;9.95;;;9.13;;
3101;SDS011;1561;42.666;23.392;2023-08-30T14:17:39;8.60;;;7.80;;
3101;SDS011;1561;42.666;23.392;2023-08-30T14:20:06;9.10;;;8.15;;
3101;SDS011;1561;42.666;23.392;2023-08-30T14:22:34;7.63;;;7.00;;
3101;SDS011;1561;42.666;23.392;2023-08-30T14:25:01;6.20;;;5.60;;
3101;SDS011;1561;42.666;23.392;2023-08-30T14:27:31;7.32;;;5.65;;
3101;SDS011;1561;42.666;23.392;2023-08-30T14:29:58;6.18;;;5.57;;
3101;SDS011;1561;42.666;23.392;2023-08-30T14:32:25;9.45;;;7.00;;
3101;SDS011;1561;42.666;23.392;2023-08-30T14:34:54;5.97;;;5.25;;
3101;SDS011;1561;42.666;23.392;2023-08-30T14:37:21;6.43;;;5.57;;
3101;SDS011;1561;42.666;23.392;2023-08-30T14:39:47;5.85;;;5.25;;
3101;SDS011;1561;42.666;23.392;2023-08-30T14:42:14;6.03;;;5.53;;
3101;SDS011;1561;42.666;23.392;2023-08-30T14:44:45;6.30;;;5.32;;
3101;SDS011;1561;42.666;23.392;2023-08-30T14:47:18;5.60;;;5.15;;
3101;SDS011;1561;42.666;23.392;2023-08-30T14:49:46;5.63;;;4.72;;
3101;SDS011;1561;42.666;23.392;2023-08-30T14:52:13;6.30;;;5.28;;
3101;SDS011;1561;42.666;23.392;2023-08-30T14:54:40;5.40;;;4.80;;
3101;SDS011;1561;42.666;23.392;2023-08-30T14:57:09;6.97;;;5.82;;
3101;SDS011;1561;42.666;23.392;2023-08-30T14:59:35;5.95;;;4.97;;